Pinkstaff, Illinois
Current Conditions -  °F | °C
As of 3:53 AM on Sunday 25 Jan 2015 (Local Time) from KLWV Reporting Station
Scattered Clouds Scattered Clouds  
Wind Chill: 32°   Ceiling: Unl
Heat Index: 37°   Visibility: 10mi
Dew Point: 33°   Wind: 6mph
Humidity: 86%   Direction: 180°S
Pressure: 29.68"   Gusts: NA
Location:  38.7501°N, 87.6141°W
Report Text: KLWV 250953Z AUTO 18005KT 10SM SCT120 03/01 A2968 RMK AO2 SLP053 T00280006
Loading
Personal Weather Stations






























Interactive Weather Map New forecast layout! Learn more

10-Day Weather Forecast

Advertisements
Track Severe Weather on mobile